createdAt,value
2023-05-24T00:00:05.093Z,99.90
2023-05-24T00:02:34.722Z,99.90
2023-05-24T00:05:02.796Z,99.90
2023-05-24T00:07:30.861Z,99.90
2023-05-24T00:09:59.067Z,99.90
2023-05-24T00:12:27.318Z,99.90
2023-05-24T00:14:56.010Z,99.90
2023-05-24T00:17:24.625Z,99.90
2023-05-24T00:19:54.182Z,99.90
2023-05-24T00:22:22.621Z,99.90
2023-05-24T00:24:50.647Z,99.90
2023-05-24T00:27:18.814Z,99.90
2023-05-24T00:29:46.918Z,99.90
2023-05-24T00:32:14.967Z,99.90
2023-05-24T00:34:43.110Z,99.90
2023-05-24T00:37:13.000Z,99.90
2023-05-24T00:39:41.315Z,99.90
2023-05-24T00:42:09.421Z,99.90
2023-05-24T00:44:37.536Z,99.90
2023-05-24T00:47:06.065Z,99.90
2023-05-24T00:49:34.145Z,99.90
2023-05-24T00:52:02.984Z,99.90
2023-05-24T00:54:32.427Z,99.90
2023-05-24T00:57:00.641Z,99.90
2023-05-24T00:59:29.024Z,99.90
2023-05-24T01:01:57.061Z,99.90
2023-05-24T01:04:25.983Z,99.90
2023-05-24T01:07:07.819Z,99.90
2023-05-24T01:09:49.658Z,99.90
2023-05-24T01:12:27.534Z,99.90
2023-05-24T01:15:06.636Z,99.90
2023-05-24T01:17:42.816Z,99.90
2023-05-24T01:20:14.271Z,99.90
2023-05-24T01:23:13.513Z,99.90
2023-05-24T01:25:56.739Z,99.90
2023-05-24T01:28:27.382Z,99.90
2023-05-24T01:30:56.773Z,99.90
2023-05-24T01:33:25.297Z,99.90
2023-05-24T01:35:53.477Z,99.90
2023-05-24T01:38:21.807Z,99.90
2023-05-24T01:40:53.832Z,99.90
2023-05-24T01:43:32.793Z,99.90
2023-05-24T01:46:07.850Z,99.90
2023-05-24T01:48:45.135Z,99.90
2023-05-24T01:51:19.838Z,99.90
2023-05-24T01:53:50.136Z,99.90
2023-05-24T01:56:20.775Z,99.90
2023-05-24T01:58:53.464Z,99.90
2023-05-24T02:01:22.588Z,99.90
2023-05-24T02:03:51.456Z,99.90
2023-05-24T02:06:19.912Z,99.90
2023-05-24T02:08:48.026Z,99.90
2023-05-24T02:11:16.046Z,99.90
2023-05-24T02:13:44.042Z,99.90
2023-05-24T02:16:13.605Z,99.90
2023-05-24T02:18:44.864Z,99.90
2023-05-24T02:21:13.091Z,99.90
2023-05-24T02:23:41.278Z,99.90
2023-05-24T02:26:11.613Z,99.90
2023-05-24T02:28:39.648Z,99.90
2023-05-24T02:31:08.638Z,99.90
2023-05-24T02:33:38.371Z,99.90
2023-05-24T02:36:06.792Z,99.90
2023-05-24T02:38:34.809Z,99.90
2023-05-24T02:41:02.820Z,99.90
2023-05-24T02:43:30.892Z,99.90
2023-05-24T02:45:59.031Z,99.90
2023-05-24T02:48:27.059Z,99.90
2023-05-24T02:50:56.505Z,99.90
2023-05-24T02:53:24.545Z,99.90
2023-05-24T02:55:52.811Z,99.90
2023-05-24T02:58:20.817Z,99.90
2023-05-24T03:00:48.813Z,99.90
2023-05-24T03:03:17.341Z,99.90
2023-05-24T03:05:45.438Z,99.90
2023-05-24T03:08:14.838Z,99.90
2023-05-24T03:10:43.357Z,99.90
2023-05-24T03:13:11.672Z,99.90
2023-05-24T03:15:39.681Z,99.90
2023-05-24T03:18:07.769Z,99.90
2023-05-24T03:20:36.057Z,99.90
2023-05-24T03:23:04.117Z,99.90
2023-05-24T03:25:33.545Z,99.90
2023-05-24T03:28:02.745Z,99.90
2023-05-24T03:30:33.366Z,99.90
2023-05-24T03:33:02.042Z,99.90
2023-05-24T03:35:30.178Z,99.90
2023-05-24T03:37:58.243Z,99.90
2023-05-24T03:40:28.889Z,99.90
2023-05-24T03:42:58.265Z,99.90
2023-05-24T03:45:35.006Z,99.90
2023-05-24T03:48:06.759Z,99.90
2023-05-24T03:50:36.024Z,99.90
2023-05-24T03:53:04.268Z,99.90
2023-05-24T03:55:32.435Z,99.90
2023-05-24T03:58:02.027Z,99.90
2023-05-24T04:00:30.283Z,99.90
2023-05-24T04:02:58.412Z,99.90
2023-05-24T04:05:27.338Z,99.90
2023-05-24T04:07:55.453Z,99.90
2023-05-24T04:10:23.900Z,99.90
2023-05-24T04:12:52.136Z,99.90
2023-05-24T04:15:21.538Z,99.90
2023-05-24T04:17:54.979Z,99.90
2023-05-24T04:20:25.583Z,99.90
2023-05-24T04:22:54.215Z,99.90
2023-05-24T04:25:22.298Z,99.90
2023-05-24T04:27:50.398Z,99.90
2023-05-24T04:30:18.945Z,99.90
2023-05-24T04:32:48.694Z,99.90
2023-05-24T04:35:17.098Z,99.90
2023-05-24T04:37:45.270Z,99.90
2023-05-24T04:40:14.227Z,99.90
2023-05-24T04:42:42.350Z,99.90
2023-05-24T04:45:11.451Z,99.90
2023-05-24T04:47:39.573Z,99.90
2023-05-24T04:50:10.014Z,99.90
2023-05-24T04:52:38.109Z,99.90
2023-05-24T04:55:06.960Z,99.90
2023-05-24T04:57:35.199Z,99.90
2023-05-24T05:00:04.890Z,99.90
2023-05-24T05:02:33.669Z,99.90
2023-05-24T05:05:01.950Z,99.90
2023-05-24T05:07:31.536Z,99.90
2023-05-24T05:09:59.547Z,99.90
2023-05-24T05:12:27.555Z,99.90
2023-05-24T05:14:56.132Z,99.90
2023-05-24T05:17:24.366Z,99.90
2023-05-24T05:19:52.446Z,99.90
2023-05-24T05:22:20.545Z,99.90
2023-05-24T05:24:49.912Z,99.90
2023-05-24T05:27:18.126Z,99.90
2023-05-24T05:29:46.397Z,99.90
2023-05-24T05:32:14.505Z,99.90
2023-05-24T05:34:43.137Z,99.90
2023-05-24T05:37:11.160Z,99.90
2023-05-24T05:39:39.174Z,99.90
2023-05-24T05:42:09.176Z,99.90
2023-05-24T05:44:37.406Z,99.90
2023-05-24T05:47:07.395Z,99.90
2023-05-24T05:49:36.393Z,99.90
2023-05-24T05:52:06.314Z,99.90
2023-05-24T05:54:34.471Z,99.90
2023-05-24T05:57:02.721Z,99.90
2023-05-24T05:59:35.928Z,99.90
2023-05-24T06:02:04.050Z,99.90
2023-05-24T06:04:32.401Z,99.90
2023-05-24T06:07:00.477Z,99.90
2023-05-24T06:09:28.492Z,99.90
2023-05-24T06:11:56.658Z,99.90
2023-05-24T06:14:25.302Z,99.90
2023-05-24T06:16:56.829Z,99.90
2023-05-24T06:19:27.163Z,99.90
2023-05-24T06:21:55.156Z,99.90
2023-05-24T06:24:23.226Z,99.90
2023-05-24T06:26:52.911Z,99.90
2023-05-24T06:29:22.152Z,99.90
2023-05-24T06:31:51.019Z,99.90
2023-05-24T06:34:22.269Z,99.90
2023-05-24T06:36:52.172Z,99.90
2023-05-24T06:39:20.179Z,99.90
2023-05-24T06:41:51.211Z,99.90
2023-05-24T06:44:20.323Z,99.90
2023-05-24T06:46:48.653Z,99.90
2023-05-24T06:49:16.933Z,99.90
2023-05-24T06:51:47.971Z,99.90
2023-05-24T06:54:16.349Z,99.90
2023-05-24T06:56:44.652Z,99.90
2023-05-24T06:59:12.663Z,99.90
2023-05-24T07:01:43.268Z,99.90
2023-05-24T07:04:11.484Z,99.90
2023-05-24T07:06:39.581Z,99.90
2023-05-24T07:09:10.601Z,99.90
2023-05-24T07:11:38.728Z,99.90
2023-05-24T07:14:06.775Z,99.90
2023-05-24T07:16:34.899Z,99.90
2023-05-24T07:19:04.907Z,99.90
2023-05-24T07:21:33.317Z,99.90
2023-05-24T07:24:02.000Z,99.90
2023-05-24T07:26:31.711Z,99.90
2023-05-24T07:28:59.771Z,99.90
2023-05-24T07:31:30.042Z,99.90
2023-05-24T07:33:58.029Z,99.90
2023-05-24T07:36:27.097Z,99.90
2023-05-24T07:38:55.493Z,99.90
2023-05-24T07:41:27.198Z,99.90
2023-05-24T07:43:56.695Z,99.90
2023-05-24T07:46:24.824Z,99.90
2023-05-24T07:48:53.273Z,99.90
2023-05-24T07:51:21.710Z,99.90
2023-05-24T07:53:50.018Z,99.90
2023-05-24T07:56:18.124Z,99.90
2023-05-24T07:58:47.105Z,99.90
2023-05-24T08:01:16.684Z,99.90
2023-05-24T08:03:44.838Z,99.90
2023-05-24T08:06:13.562Z,99.90
2023-05-24T08:08:41.966Z,99.90
2023-05-24T08:11:10.089Z,99.90
2023-05-24T08:13:38.269Z,99.90
2023-05-24T08:16:06.515Z,99.90
2023-05-24T08:18:36.034Z,99.90
2023-05-24T08:21:04.133Z,99.90
2023-05-24T08:23:32.699Z,99.90
2023-05-24T08:26:00.898Z,99.90
2023-05-24T08:28:29.933Z,99.90
2023-05-24T08:30:58.985Z,99.90
2023-05-24T08:33:26.953Z,99.90
2023-05-24T08:35:56.299Z,99.90
2023-05-24T08:38:24.589Z,99.90
2023-05-24T08:40:52.685Z,99.90
2023-05-24T08:43:22.414Z,99.90
2023-05-24T08:45:51.652Z,99.90
2023-05-24T08:48:20.700Z,99.90
2023-05-24T08:50:49.179Z,99.90
2023-05-24T08:53:20.104Z,99.90
2023-05-24T08:55:49.803Z,99.90
2023-05-24T08:58:18.536Z,99.90
2023-05-24T09:00:46.589Z,99.90
2023-05-24T09:03:15.105Z,99.90
2023-05-24T09:05:44.217Z,99.90
2023-05-24T09:08:13.548Z,99.90
2023-05-24T09:10:54.036Z,99.90
2023-05-24T09:13:25.037Z,99.90
2023-05-24T09:15:53.840Z,99.90
2023-05-24T09:18:22.256Z,99.90
2023-05-24T09:20:50.735Z,99.90
2023-05-24T09:23:19.383Z,99.90
2023-05-24T09:25:49.329Z,99.90
2023-05-24T09:28:19.373Z,99.90
2023-05-24T09:30:59.509Z,99.90
2023-05-24T09:33:30.824Z,99.90
2023-05-24T09:36:00.039Z,99.90
2023-05-24T09:38:28.172Z,99.90
2023-05-24T09:41:02.672Z,99.90
2023-05-24T09:43:31.720Z,99.90
2023-05-24T09:46:00.537Z,99.90
2023-05-24T09:48:28.557Z,99.90
2023-05-24T09:51:04.189Z,99.90
2023-05-24T09:53:33.957Z,99.90
2023-05-24T09:56:05.368Z,99.90
2023-05-24T09:58:34.088Z,99.90
2023-05-24T10:01:07.399Z,99.90
2023-05-24T10:03:37.897Z,99.90
2023-05-24T10:06:07.949Z,99.90
2023-05-24T10:08:36.960Z,99.90
2023-05-24T10:11:08.297Z,99.90
2023-05-24T10:13:37.686Z,99.90
2023-05-24T10:16:06.290Z,99.90
2023-05-24T10:18:35.170Z,99.90
2023-05-24T10:21:08.381Z,99.90
2023-05-24T10:23:40.488Z,99.90
2023-05-24T10:26:12.547Z,99.90
2023-05-24T10:28:45.770Z,99.90
2023-05-24T10:31:18.366Z,99.90
2023-05-24T10:33:48.668Z,99.90
2023-05-24T10:36:17.604Z,99.90
2023-05-24T10:38:48.143Z,99.90
2023-05-24T10:41:19.704Z,99.90
2023-05-24T10:44:00.821Z,99.90
2023-05-24T10:46:36.366Z,99.90
2023-05-24T10:49:06.559Z,99.90
2023-05-24T10:51:37.119Z,99.90
2023-05-24T10:54:17.757Z,99.90
2023-05-24T10:56:49.393Z,99.90
2023-05-24T10:59:31.691Z,99.90
2023-05-24T11:02:01.071Z,99.90
2023-05-24T11:04:38.373Z,99.90
2023-05-24T11:07:09.836Z,99.90
2023-05-24T11:09:39.656Z,99.90
2023-05-24T11:12:10.556Z,99.90
2023-05-24T11:14:41.277Z,99.90
2023-05-24T11:17:10.710Z,99.90
2023-05-24T11:19:39.818Z,99.90
2023-05-24T11:22:09.534Z,99.90
2023-05-24T11:24:38.662Z,99.90
2023-05-24T11:27:07.238Z,99.90
2023-05-24T11:29:43.359Z,99.90
2023-05-24T11:32:12.327Z,99.90
2023-05-24T11:34:40.824Z,99.90
2023-05-24T11:37:09.429Z,99.90
2023-05-24T11:39:38.531Z,99.90
2023-05-24T11:42:07.692Z,99.90
2023-05-24T11:44:38.575Z,99.90
2023-05-24T11:47:09.786Z,99.90
2023-05-24T11:49:37.779Z,99.90
2023-05-24T11:52:06.655Z,99.90
2023-05-24T11:54:35.108Z,99.90
2023-05-24T11:57:03.630Z,99.90
2023-05-24T11:59:31.817Z,99.90
2023-05-24T12:02:03.674Z,99.90
2023-05-24T12:04:34.680Z,99.90
2023-05-24T12:07:03.453Z,99.90
2023-05-24T12:09:31.625Z,99.90
2023-05-24T12:11:59.837Z,99.60
2023-05-24T12:14:31.297Z,99.00
2023-05-24T12:17:00.099Z,98.50
2023-05-24T12:19:35.261Z,97.60
2023-05-24T12:22:08.006Z,97.30
2023-05-24T12:24:36.652Z,96.80
2023-05-24T12:27:07.853Z,96.60
2023-05-24T12:29:37.931Z,96.30
2023-05-24T12:32:11.869Z,95.90
2023-05-24T12:34:42.712Z,95.60
2023-05-24T12:37:12.312Z,95.30
2023-05-24T12:39:43.522Z,95.30
2023-05-24T12:42:13.359Z,94.80
2023-05-24T12:44:41.992Z,94.40
2023-05-24T12:47:12.183Z,94.10
2023-05-24T12:49:41.882Z,93.40
2023-05-24T12:52:10.348Z,93.10
2023-05-24T12:54:38.410Z,92.60
2023-05-24T12:57:07.235Z,92.40
2023-05-24T12:59:35.397Z,91.90
2023-05-24T13:02:03.467Z,91.90
2023-05-24T13:04:33.659Z,91.70
2023-05-24T13:07:04.230Z,91.60
2023-05-24T13:09:33.240Z,91.40
2023-05-24T13:12:01.411Z,91.10
2023-05-24T13:14:29.608Z,90.60
2023-05-24T13:16:57.847Z,90.00
2023-05-24T13:19:25.934Z,89.20
2023-05-24T13:21:54.120Z,88.30
2023-05-24T13:24:23.658Z,87.40
2023-05-24T13:26:54.510Z,86.50
2023-05-24T13:31:54.895Z,86.30
2023-05-24T13:34:23.275Z,86.50
2023-05-24T13:36:51.392Z,86.50
2023-05-24T13:39:19.821Z,86.10
2023-05-24T13:41:50.183Z,85.60
2023-05-24T13:44:18.507Z,85.80
2023-05-24T13:46:47.259Z,86.70
2023-05-24T13:49:15.522Z,87.00
2023-05-24T13:51:43.568Z,86.00
2023-05-24T13:54:11.874Z,84.40
2023-05-24T13:56:40.201Z,83.60
2023-05-24T13:59:09.779Z,83.40
2023-05-24T14:01:39.300Z,82.60
2023-05-24T14:04:08.128Z,81.60
2023-05-24T14:06:37.741Z,81.00
2023-05-24T14:09:08.267Z,79.80
2023-05-24T14:11:36.793Z,78.90
2023-05-24T14:16:37.629Z,78.10
2023-05-24T14:19:05.849Z,78.60
2023-05-24T14:21:34.163Z,77.30
2023-05-24T14:24:02.160Z,76.70
2023-05-24T14:26:31.162Z,76.20
2023-05-24T14:28:59.482Z,76.00
2023-05-24T14:31:27.618Z,76.20
2023-05-24T14:33:57.363Z,76.30
2023-05-24T14:36:25.807Z,75.80
2023-05-24T14:38:53.983Z,75.40
2023-05-24T14:41:22.778Z,75.20
2023-05-24T14:43:51.164Z,75.20
2023-05-24T14:46:19.343Z,75.40
2023-05-24T14:48:47.531Z,75.60
2023-05-24T14:51:17.085Z,75.80
2023-05-24T14:53:45.903Z,76.20
2023-05-24T14:56:14.863Z,76.70
2023-05-24T14:58:43.146Z,76.90
2023-05-24T15:01:11.485Z,77.10
2023-05-24T15:03:41.608Z,77.20
2023-05-24T15:06:09.979Z,76.90
2023-05-24T15:08:39.455Z,76.60
2023-05-24T15:11:07.565Z,76.50
2023-05-24T15:13:38.195Z,76.20
2023-05-24T15:16:06.677Z,76.00
2023-05-24T15:18:36.493Z,76.00
2023-05-24T15:21:05.374Z,76.10
2023-05-24T15:23:33.536Z,76.20
2023-05-24T15:26:03.236Z,76.10
2023-05-24T15:28:31.271Z,76.50
2023-05-24T15:30:59.367Z,76.90
2023-05-24T15:33:27.491Z,77.00
2023-05-24T15:35:56.931Z,77.00
2023-05-24T15:38:25.047Z,77.10
2023-05-24T15:40:53.186Z,77.10
2023-05-24T15:43:22.546Z,77.40
2023-05-24T15:45:50.640Z,77.30
2023-05-24T15:48:18.762Z,77.30
2023-05-24T15:53:19.832Z,77.30
2023-05-24T15:55:49.740Z,77.00
2023-05-24T15:58:18.713Z,76.50
2023-05-24T16:00:48.396Z,76.60
2023-05-24T16:03:16.580Z,76.60
2023-05-24T16:05:49.246Z,76.70
2023-05-24T16:08:17.823Z,76.80
2023-05-24T16:10:46.466Z,77.00
2023-05-24T16:13:14.665Z,77.00
2023-05-24T16:15:42.711Z,77.20
2023-05-24T16:18:12.077Z,77.40
2023-05-24T16:20:40.183Z,77.30
2023-05-24T16:23:08.458Z,77.90
2023-05-24T16:25:36.454Z,78.40
2023-05-24T16:28:04.450Z,78.70
2023-05-24T16:30:32.515Z,79.30
2023-05-24T16:33:00.693Z,79.70
2023-05-24T16:35:31.552Z,79.90
2023-05-24T16:37:59.822Z,80.20
2023-05-24T16:40:28.434Z,80.40
2023-05-24T16:42:56.788Z,80.70
2023-05-24T16:45:24.811Z,81.10
2023-05-24T16:47:52.820Z,81.40
2023-05-24T16:50:20.967Z,81.80
2023-05-24T16:52:50.445Z,82.10
2023-05-24T16:55:18.810Z,82.40
2023-05-24T16:57:46.834Z,82.50
2023-05-24T17:00:16.288Z,82.60
2023-05-24T17:02:44.336Z,82.70
2023-05-24T17:05:12.635Z,83.00
2023-05-24T17:07:40.680Z,83.40
2023-05-24T17:10:10.793Z,84.00
2023-05-24T17:12:38.998Z,84.60
2023-05-24T17:15:08.352Z,85.10
2023-05-24T17:17:36.967Z,85.40
2023-05-24T17:20:05.939Z,85.60
2023-05-24T17:22:33.970Z,85.60
2023-05-24T17:25:01.990Z,85.80
2023-05-24T17:27:31.633Z,86.30
2023-05-24T17:29:59.855Z,86.80
2023-05-24T17:32:28.393Z,87.40
2023-05-24T17:34:57.139Z,88.00
2023-05-24T17:37:25.152Z,88.60
2023-05-24T17:39:53.225Z,89.10
2023-05-24T17:42:21.263Z,89.50
2023-05-24T17:44:50.725Z,90.00
2023-05-24T17:47:18.734Z,90.60
2023-05-24T17:49:47.107Z,90.40
2023-05-24T17:52:15.128Z,90.60
2023-05-24T17:54:43.183Z,90.80
2023-05-24T17:57:11.195Z,91.00
2023-05-24T17:59:39.197Z,91.20
2023-05-24T18:02:08.624Z,91.50
2023-05-24T18:04:36.642Z,91.70
2023-05-24T18:07:04.775Z,91.90
2023-05-24T18:09:32.854Z,92.10
2023-05-24T18:12:01.109Z,92.30
2023-05-24T18:14:31.395Z,92.50
2023-05-24T18:16:59.413Z,92.60
2023-05-24T18:19:29.135Z,92.70
2023-05-24T18:21:58.201Z,92.90
2023-05-24T18:24:26.553Z,93.00
2023-05-24T18:26:54.783Z,93.20
2023-05-24T18:29:23.020Z,93.30
2023-05-24T18:31:51.782Z,93.50
2023-05-24T18:34:19.798Z,93.70
2023-05-24T18:36:50.007Z,93.90
2023-05-24T18:39:19.056Z,94.10
2023-05-24T18:41:47.120Z,94.20
2023-05-24T18:44:15.631Z,94.50
2023-05-24T18:46:43.960Z,94.80
2023-05-24T18:49:12.837Z,95.00
2023-05-24T18:51:41.285Z,95.20
2023-05-24T18:54:11.067Z,95.50
2023-05-24T18:56:39.092Z,95.70
2023-05-24T18:59:07.158Z,95.90
2023-05-24T19:01:35.231Z,96.20
2023-05-24T19:04:03.254Z,96.40
2023-05-24T19:06:31.422Z,96.60
2023-05-24T19:09:00.376Z,96.80
2023-05-24T19:11:29.844Z,96.90
2023-05-24T19:13:57.867Z,97.10
2023-05-24T19:16:26.434Z,97.30
2023-05-24T19:18:54.429Z,97.50
2023-05-24T19:21:24.300Z,97.70
2023-05-24T19:23:52.347Z,97.90
2023-05-24T19:26:20.522Z,98.10
2023-05-24T19:28:52.227Z,98.30
2023-05-24T19:31:21.310Z,98.70
2023-05-24T19:34:00.023Z,99.00
2023-05-24T19:36:30.859Z,98.80
2023-05-24T19:38:58.899Z,99.00
2023-05-24T19:41:26.994Z,99.30
2023-05-24T19:43:58.512Z,99.50
2023-05-24T19:46:26.916Z,99.90
2023-05-24T19:48:55.023Z,99.90
2023-05-24T19:51:23.089Z,99.90
2023-05-24T19:53:51.208Z,99.90
2023-05-24T19:56:20.837Z,99.90
2023-05-24T19:58:50.023Z,99.90
2023-05-24T20:01:19.452Z,99.90
2023-05-24T20:03:48.819Z,99.90
2023-05-24T20:06:17.264Z,99.90
2023-05-24T20:08:45.769Z,99.90
2023-05-24T20:11:14.415Z,99.90
2023-05-24T20:13:42.496Z,99.90
2023-05-24T20:16:10.988Z,99.90
2023-05-24T20:18:40.518Z,99.90
2023-05-24T20:21:08.540Z,99.90
2023-05-24T20:23:36.581Z,99.90
2023-05-24T20:26:04.910Z,99.90
2023-05-24T20:28:33.130Z,99.90
2023-05-24T20:31:01.738Z,99.90
2023-05-24T20:33:29.841Z,99.90
2023-05-24T20:35:59.411Z,99.90
2023-05-24T20:38:27.609Z,99.90
2023-05-24T20:40:55.740Z,99.90
2023-05-24T20:43:24.422Z,99.90
2023-05-24T20:45:52.461Z,99.90
2023-05-24T20:48:21.702Z,99.90
2023-05-24T20:50:50.244Z,99.90
2023-05-24T20:53:20.040Z,99.90
2023-05-24T20:55:48.031Z,99.90
2023-05-24T20:58:18.118Z,99.90
2023-05-24T21:00:46.260Z,99.90
2023-05-24T21:03:14.530Z,99.90
2023-05-24T21:05:43.248Z,99.90
2023-05-24T21:08:11.802Z,99.90
2023-05-24T21:10:41.706Z,99.90
2023-05-24T21:13:09.875Z,99.90
2023-05-24T21:15:37.876Z,99.90
2023-05-24T21:18:06.038Z,99.90
2023-05-24T21:20:34.272Z,99.90
2023-05-24T21:23:02.431Z,99.90
2023-05-24T21:25:30.887Z,99.90
2023-05-24T21:28:00.327Z,99.90
2023-05-24T21:30:28.359Z,99.90
2023-05-24T21:32:56.447Z,99.90
2023-05-24T21:35:24.482Z,99.90
2023-05-24T21:37:52.577Z,99.90
2023-05-24T21:40:20.773Z,99.90
2023-05-24T21:42:48.787Z,99.90
2023-05-24T21:45:18.522Z,99.90
2023-05-24T21:47:46.992Z,99.90
2023-05-24T21:50:15.060Z,99.90
2023-05-24T21:52:43.134Z,99.90
2023-05-24T21:55:11.360Z,99.90
2023-05-24T21:57:39.489Z,99.90
2023-05-24T22:00:09.013Z,99.90
2023-05-24T22:02:38.475Z,99.90
2023-05-24T22:05:07.205Z,99.90
2023-05-24T22:07:37.094Z,99.90
2023-05-24T22:10:05.637Z,99.90
2023-05-24T22:12:34.177Z,99.90
2023-05-24T22:15:02.847Z,99.90
2023-05-24T22:17:32.944Z,99.90
2023-05-24T22:20:03.036Z,99.90
2023-05-24T22:22:31.123Z,99.90
2023-05-24T22:24:59.566Z,99.90
2023-05-24T22:27:27.552Z,99.90
2023-05-24T22:29:56.092Z,99.90
2023-05-24T22:32:24.140Z,99.90
2023-05-24T22:34:52.261Z,99.90
2023-05-24T22:37:21.762Z,99.90
2023-05-24T22:39:49.852Z,99.90
2023-05-24T22:42:18.051Z,99.90
2023-05-24T22:44:46.435Z,99.90
2023-05-24T22:47:16.973Z,99.90
2023-05-24T22:49:45.022Z,99.90
2023-05-24T22:52:13.002Z,99.90
2023-05-24T22:54:42.391Z,99.90
2023-05-24T22:57:10.427Z,99.90
2023-05-24T22:59:38.430Z,99.90
2023-05-24T23:02:06.470Z,99.90
2023-05-24T23:04:34.470Z,99.90
2023-05-24T23:07:02.625Z,99.90
2023-05-24T23:09:34.782Z,99.90
2023-05-24T23:12:08.346Z,99.90
2023-05-24T23:14:39.351Z,99.90
2023-05-24T23:17:10.353Z,99.90
2023-05-24T23:19:42.304Z,99.90
2023-05-24T23:22:11.884Z,99.90
2023-05-24T23:24:42.157Z,99.90
2023-05-24T23:27:12.570Z,99.90
2023-05-24T23:29:40.761Z,99.90
2023-05-24T23:32:09.646Z,99.90
2023-05-24T23:34:37.929Z,99.90
2023-05-24T23:37:06.737Z,99.90
2023-05-24T23:39:34.816Z,99.90
2023-05-24T23:42:03.978Z,99.90
2023-05-24T23:44:33.626Z,99.90
2023-05-24T23:47:03.888Z,99.90
2023-05-24T23:49:32.085Z,99.90
2023-05-24T23:52:00.220Z,99.90
2023-05-24T23:54:28.436Z,99.90
2023-05-24T23:56:56.659Z,99.90
2023-05-24T23:59:24.669Z,99.90
